sensor_id;sensor_type;location;lat;lon;timestamp;temperature;humidity
16485;DHT22;8353;47.856;12.344;2022-12-20T00:02:00;4.10;99.90
16485;DHT22;8353;47.856;12.344;2022-12-20T00:04:30;4.00;99.90
16485;DHT22;8353;47.856;12.344;2022-12-20T00:07:03;4.00;99.90
16485;DHT22;8353;47.856;12.344;2022-12-20T00:09:33;4.00;99.90
16485;DHT22;8353;47.856;12.344;2022-12-20T00:12:04;4.00;99.90
16485;DHT22;8353;47.856;12.344;2022-12-20T00:14:34;3.90;99.90
16485;DHT22;8353;47.856;12.344;2022-12-20T00:17:05;3.90;99.90
16485;DHT22;8353;47.856;12.344;2022-12-20T00:19:35;4.00;99.90
16485;DHT22;8353;47.856;12.344;2022-12-20T00:22:08;4.00;99.90
16485;DHT22;8353;47.856;12.344;2022-12-20T00:24:38;4.00;99.90
16485;DHT22;8353;47.856;12.344;2022-12-20T00:27:09;4.10;99.90
16485;DHT22;8353;47.856;12.344;2022-12-20T00:29:40;4.20;99.90
16485;DHT22;8353;47.856;12.344;2022-12-20T00:32:10;4.20;99.90
16485;DHT22;8353;47.856;12.344;2022-12-20T00:34:41;4.20;99.90
16485;DHT22;8353;47.856;12.344;2022-12-20T00:37:15;4.10;99.90
16485;DHT22;8353;47.856;12.344;2022-12-20T00:39:46;4.10;99.90
16485;DHT22;8353;47.856;12.344;2022-12-20T00:42:17;4.20;99.90
16485;DHT22;8353;47.856;12.344;2022-12-20T00:44:47;4.20;99.90
16485;DHT22;8353;47.856;12.344;2022-12-20T00:47:18;4.20;99.90
16485;DHT22;8353;47.856;12.344;2022-12-20T00:49:48;4.20;99.90
16485;DHT22;8353;47.856;12.344;2022-12-20T00:52:21;4.20;99.90
16485;DHT22;8353;47.856;12.344;2022-12-20T00:54:51;4.10;99.90
16485;DHT22;8353;47.856;12.344;2022-12-20T00:57:22;4.20;99.90
16485;DHT22;8353;47.856;12.344;2022-12-20T00:59:53;4.20;99.90
16485;DHT22;8353;47.856;12.344;2022-12-20T01:02:23;4.20;99.90
16485;DHT22;8353;47.856;12.344;2022-12-20T01:04:54;4.10;99.90
16485;DHT22;8353;47.856;12.344;2022-12-20T01:07:26;4.20;99.90
16485;DHT22;8353;47.856;12.344;2022-12-20T01:09:57;4.20;99.90
16485;DHT22;8353;47.856;12.344;2022-12-20T01:12:27;4.30;99.90
16485;DHT22;8353;47.856;12.344;2022-12-20T01:14:58;4.30;99.90
16485;DHT22;8353;47.856;12.344;2022-12-20T01:17:28;4.30;99.90
16485;DHT22;8353;47.856;12.344;2022-12-20T01:19:59;4.20;99.90
16485;DHT22;8353;47.856;12.344;2022-12-20T01:22:31;4.20;99.90
16485;DHT22;8353;47.856;12.344;2022-12-20T01:25:01;4.10;99.90
16485;DHT22;8353;47.856;12.344;2022-12-20T01:27:32;4.10;99.90
16485;DHT22;8353;47.856;12.344;2022-12-20T01:30:03;4.10;99.90
16485;DHT22;8353;47.856;12.344;2022-12-20T01:32:33;4.20;99.90
16485;DHT22;8353;47.856;12.344;2022-12-20T01:35:04;4.20;99.90
16485;DHT22;8353;47.856;12.344;2022-12-20T01:37:36;4.20;99.90
16485;DHT22;8353;47.856;12.344;2022-12-20T01:40:07;4.10;99.90
16485;DHT22;8353;47.856;12.344;2022-12-20T01:42:38;4.10;99.90
16485;DHT22;8353;47.856;12.344;2022-12-20T01:45:17;4.00;99.90
16485;DHT22;8353;47.856;12.344;2022-12-20T01:47:51;4.10;99.90
16485;DHT22;8353;47.856;12.344;2022-12-20T01:50:22;4.20;99.90
16485;DHT22;8353;47.856;12.344;2022-12-20T01:52:55;4.10;99.90
16485;DHT22;8353;47.856;12.344;2022-12-20T01:55:29;4.10;99.90
16485;DHT22;8353;47.856;12.344;2022-12-20T01:58:01;4.10;99.90
16485;DHT22;8353;47.856;12.344;2022-12-20T02:00:33;4.00;99.90
16485;DHT22;8353;47.856;12.344;2022-12-20T02:03:06;4.10;99.90
16485;DHT22;8353;47.856;12.344;2022-12-20T02:05:40;4.20;99.90
16485;DHT22;8353;47.856;12.344;2022-12-20T02:08:14;4.20;99.90
16485;DHT22;8353;47.856;12.344;2022-12-20T02:10:55;4.20;99.90
16485;DHT22;8353;47.856;12.344;2022-12-20T02:13:37;4.30;99.90
16485;DHT22;8353;47.856;12.344;2022-12-20T02:16:14;4.40;99.90
16485;DHT22;8353;47.856;12.344;2022-12-20T02:18:51;4.40;99.90
16485;DHT22;8353;47.856;12.344;2022-12-20T02:21:27;4.30;99.90
16485;DHT22;8353;47.856;12.344;2022-12-20T02:24:46;4.20;99.90
16485;DHT22;8353;47.856;12.344;2022-12-20T02:27:39;4.30;99.90
16485;DHT22;8353;47.856;12.344;2022-12-20T02:30:13;4.40;99.90
16485;DHT22;8353;47.856;12.344;2022-12-20T02:32:50;4.40;99.90
16485;DHT22;8353;47.856;12.344;2022-12-20T02:35:24;4.40;99.90
16485;DHT22;8353;47.856;12.344;2022-12-20T02:37:58;4.40;99.90
16485;DHT22;8353;47.856;12.344;2022-12-20T02:40:32;4.30;99.90
16485;DHT22;8353;47.856;12.344;2022-12-20T02:43:05;4.30;99.90
16485;DHT22;8353;47.856;12.344;2022-12-20T02:45:59;4.20;99.90
16485;DHT22;8353;47.856;12.344;2022-12-20T02:48:31;4.10;99.90
16485;DHT22;8353;47.856;12.344;2022-12-20T02:51:03;4.10;99.90
16485;DHT22;8353;47.856;12.344;2022-12-20T02:53:35;4.20;99.90
16485;DHT22;8353;47.856;12.344;2022-12-20T02:56:10;4.30;99.90
16485;DHT22;8353;47.856;12.344;2022-12-20T02:58:45;4.30;99.90
16485;DHT22;8353;47.856;12.344;2022-12-20T03:01:22;4.30;99.90
16485;DHT22;8353;47.856;12.344;2022-12-20T03:03:55;4.30;99.90
16485;DHT22;8353;47.856;12.344;2022-12-20T03:06:26;4.30;99.90
16485;DHT22;8353;47.856;12.344;2022-12-20T03:08:58;4.20;99.90
16485;DHT22;8353;47.856;12.344;2022-12-20T03:11:29;4.20;99.90
16485;DHT22;8353;47.856;12.344;2022-12-20T03:13:59;4.20;99.90
16485;DHT22;8353;47.856;12.344;2022-12-20T03:16:32;4.20;99.90
16485;DHT22;8353;47.856;12.344;2022-12-20T03:19:02;4.20;99.90
16485;DHT22;8353;47.856;12.344;2022-12-20T03:21:33;4.20;99.90
16485;DHT22;8353;47.856;12.344;2022-12-20T03:24:04;4.20;99.90
16485;DHT22;8353;47.856;12.344;2022-12-20T03:26:35;4.20;99.90
16485;DHT22;8353;47.856;12.344;2022-12-20T03:29:06;4.20;99.90
16485;DHT22;8353;47.856;12.344;2022-12-20T03:31:38;4.20;99.90
16485;DHT22;8353;47.856;12.344;2022-12-20T03:34:09;4.20;99.90
16485;DHT22;8353;47.856;12.344;2022-12-20T03:36:40;4.30;99.90
16485;DHT22;8353;47.856;12.344;2022-12-20T03:39:10;4.30;99.90
16485;DHT22;8353;47.856;12.344;2022-12-20T03:41:51;4.30;99.90
16485;DHT22;8353;47.856;12.344;2022-12-20T03:44:21;4.30;99.90
16485;DHT22;8353;47.856;12.344;2022-12-20T03:46:54;4.20;99.90
16485;DHT22;8353;47.856;12.344;2022-12-20T03:49:25;4.20;99.90
16485;DHT22;8353;47.856;12.344;2022-12-20T03:51:56;4.20;99.90
16485;DHT22;8353;47.856;12.344;2022-12-20T03:54:26;4.10;99.90
16485;DHT22;8353;47.856;12.344;2022-12-20T03:56:57;4.10;99.90
16485;DHT22;8353;47.856;12.344;2022-12-20T03:59:27;4.10;99.90
16485;DHT22;8353;47.856;12.344;2022-12-20T04:01:59;4.20;99.90
16485;DHT22;8353;47.856;12.344;2022-12-20T04:04:29;4.10;99.90
16485;DHT22;8353;47.856;12.344;2022-12-20T04:07:00;4.20;99.90
16485;DHT22;8353;47.856;12.344;2022-12-20T04:09:30;4.10;99.90
16485;DHT22;8353;47.856;12.344;2022-12-20T04:12:01;4.10;99.90
16485;DHT22;8353;47.856;12.344;2022-12-20T04:14:31;4.20;99.90
16485;DHT22;8353;47.856;12.344;2022-12-20T04:17:03;4.10;99.90
16485;DHT22;8353;47.856;12.344;2022-12-20T04:19:34;4.10;99.90
16485;DHT22;8353;47.856;12.344;2022-12-20T04:22:05;4.10;99.90
16485;DHT22;8353;47.856;12.344;2022-12-20T04:24:35;4.00;99.90
16485;DHT22;8353;47.856;12.344;2022-12-20T04:27:06;4.00;99.90
16485;DHT22;8353;47.856;12.344;2022-12-20T04:29:36;3.90;99.90
16485;DHT22;8353;47.856;12.344;2022-12-20T04:32:08;3.70;99.90
16485;DHT22;8353;47.856;12.344;2022-12-20T04:34:39;3.80;99.90
16485;DHT22;8353;47.856;12.344;2022-12-20T04:37:09;3.90;99.90
16485;DHT22;8353;47.856;12.344;2022-12-20T04:39:40;3.90;99.90
16485;DHT22;8353;47.856;12.344;2022-12-20T04:42:10;3.80;99.90
16485;DHT22;8353;47.856;12.344;2022-12-20T04:44:41;3.90;99.90
16485;DHT22;8353;47.856;12.344;2022-12-20T04:47:13;3.90;99.90
16485;DHT22;8353;47.856;12.344;2022-12-20T04:49:43;3.90;99.90
16485;DHT22;8353;47.856;12.344;2022-12-20T04:52:13;3.90;99.90
16485;DHT22;8353;47.856;12.344;2022-12-20T04:55:01;3.90;99.90
16485;DHT22;8353;47.856;12.344;2022-12-20T04:57:32;3.80;99.90
16485;DHT22;8353;47.856;12.344;2022-12-20T05:00:03;3.80;99.90
16485;DHT22;8353;47.856;12.344;2022-12-20T05:02:35;3.80;99.90
16485;DHT22;8353;47.856;12.344;2022-12-20T05:05:06;3.90;99.90
16485;DHT22;8353;47.856;12.344;2022-12-20T05:07:37;3.80;99.90
16485;DHT22;8353;47.856;12.344;2022-12-20T05:10:08;3.80;99.90
16485;DHT22;8353;47.856;12.344;2022-12-20T05:12:38;3.80;99.90
16485;DHT22;8353;47.856;12.344;2022-12-20T05:15:09;3.80;99.90
16485;DHT22;8353;47.856;12.344;2022-12-20T05:17:41;3.90;99.90
16485;DHT22;8353;47.856;12.344;2022-12-20T05:20:12;3.90;99.90
16485;DHT22;8353;47.856;12.344;2022-12-20T05:22:43;3.90;99.90
16485;DHT22;8353;47.856;12.344;2022-12-20T05:25:31;3.80;99.90
16485;DHT22;8353;47.856;12.344;2022-12-20T05:28:19;3.80;99.90
16485;DHT22;8353;47.856;12.344;2022-12-20T05:30:50;3.90;99.90
16485;DHT22;8353;47.856;12.344;2022-12-20T05:33:22;3.90;99.90
16485;DHT22;8353;47.856;12.344;2022-12-20T05:35:53;4.00;99.90
16485;DHT22;8353;47.856;12.344;2022-12-20T05:38:23;3.90;99.90
16485;DHT22;8353;47.856;12.344;2022-12-20T05:40:54;4.00;99.90
16485;DHT22;8353;47.856;12.344;2022-12-20T05:43:24;4.00;99.90
16485;DHT22;8353;47.856;12.344;2022-12-20T05:45:54;4.00;99.90
16485;DHT22;8353;47.856;12.344;2022-12-20T05:48:26;4.00;99.90
16485;DHT22;8353;47.856;12.344;2022-12-20T05:50:56;3.90;99.90
16485;DHT22;8353;47.856;12.344;2022-12-20T05:53:27;4.00;99.90
16485;DHT22;8353;47.856;12.344;2022-12-20T05:55:58;4.00;99.90
16485;DHT22;8353;47.856;12.344;2022-12-20T05:58:29;4.00;99.90
16485;DHT22;8353;47.856;12.344;2022-12-20T06:01:01;4.00;99.90
16485;DHT22;8353;47.856;12.344;2022-12-20T06:03:33;4.00;99.90
16485;DHT22;8353;47.856;12.344;2022-12-20T06:06:04;4.00;99.90
16485;DHT22;8353;47.856;12.344;2022-12-20T06:08:35;4.00;99.90
16485;DHT22;8353;47.856;12.344;2022-12-20T06:11:06;4.00;99.90
16485;DHT22;8353;47.856;12.344;2022-12-20T06:13:36;4.00;99.90
16485;DHT22;8353;47.856;12.344;2022-12-20T06:16:06;4.00;99.90
16485;DHT22;8353;47.856;12.344;2022-12-20T06:18:38;4.00;99.90
16485;DHT22;8353;47.856;12.344;2022-12-20T06:21:09;4.00;99.90
16485;DHT22;8353;47.856;12.344;2022-12-20T06:23:46;4.00;99.90
16485;DHT22;8353;47.856;12.344;2022-12-20T06:26:25;4.00;99.90
16485;DHT22;8353;47.856;12.344;2022-12-20T06:28:55;4.10;99.90
16485;DHT22;8353;47.856;12.344;2022-12-20T06:31:30;4.10;99.90
16485;DHT22;8353;47.856;12.344;2022-12-20T06:34:02;4.00;99.90
16485;DHT22;8353;47.856;12.344;2022-12-20T06:36:32;4.00;99.90
16485;DHT22;8353;47.856;12.344;2022-12-20T06:39:03;4.00;99.90
16485;DHT22;8353;47.856;12.344;2022-12-20T06:41:33;4.00;99.90
16485;DHT22;8353;47.856;12.344;2022-12-20T06:44:05;4.00;99.90
16485;DHT22;8353;47.856;12.344;2022-12-20T06:46:35;4.00;99.90
16485;DHT22;8353;47.856;12.344;2022-12-20T06:49:07;4.00;99.90
16485;DHT22;8353;47.856;12.344;2022-12-20T06:51:37;4.00;99.90
16485;DHT22;8353;47.856;12.344;2022-12-20T06:54:08;4.10;99.90
16485;DHT22;8353;47.856;12.344;2022-12-20T06:56:38;4.10;99.90
16485;DHT22;8353;47.856;12.344;2022-12-20T06:59:09;4.20;99.90
16485;DHT22;8353;47.856;12.344;2022-12-20T07:01:39;4.20;99.90
16485;DHT22;8353;47.856;12.344;2022-12-20T07:04:10;4.20;99.90
16485;DHT22;8353;47.856;12.344;2022-12-20T07:06:41;4.20;99.90
16485;DHT22;8353;47.856;12.344;2022-12-20T07:09:11;4.20;99.90
16485;DHT22;8353;47.856;12.344;2022-12-20T07:11:44;4.20;99.90
16485;DHT22;8353;47.856;12.344;2022-12-20T07:14:14;4.20;99.90
16485;DHT22;8353;47.856;12.344;2022-12-20T07:16:44;4.20;99.90
16485;DHT22;8353;47.856;12.344;2022-12-20T07:19:16;4.20;99.90
16485;DHT22;8353;47.856;12.344;2022-12-20T07:21:47;4.20;99.90
16485;DHT22;8353;47.856;12.344;2022-12-20T07:24:17;4.10;99.90
16485;DHT22;8353;47.856;12.344;2022-12-20T07:26:47;4.10;99.90
16485;DHT22;8353;47.856;12.344;2022-12-20T07:29:17;4.10;99.90
16485;DHT22;8353;47.856;12.344;2022-12-20T07:31:48;4.10;99.90
16485;DHT22;8353;47.856;12.344;2022-12-20T07:34:20;4.10;99.90
16485;DHT22;8353;47.856;12.344;2022-12-20T07:36:50;4.20;99.90
16485;DHT22;8353;47.856;12.344;2022-12-20T07:39:20;4.30;99.90
16485;DHT22;8353;47.856;12.344;2022-12-20T07:41:52;4.30;99.90
16485;DHT22;8353;47.856;12.344;2022-12-20T07:44:23;4.30;99.90
16485;DHT22;8353;47.856;12.344;2022-12-20T07:46:53;4.30;99.90
16485;DHT22;8353;47.856;12.344;2022-12-20T07:49:25;4.20;99.90
16485;DHT22;8353;47.856;12.344;2022-12-20T07:51:57;4.20;99.90
16485;DHT22;8353;47.856;12.344;2022-12-20T07:54:32;4.10;99.90
16485;DHT22;8353;47.856;12.344;2022-12-20T07:57:08;4.00;99.90
16485;DHT22;8353;47.856;12.344;2022-12-20T07:59:42;4.10;99.90
16485;DHT22;8353;47.856;12.344;2022-12-20T08:02:17;4.20;99.90
16485;DHT22;8353;47.856;12.344;2022-12-20T08:04:52;4.20;99.90
16485;DHT22;8353;47.856;12.344;2022-12-20T08:07:23;4.20;99.90
16485;DHT22;8353;47.856;12.344;2022-12-20T08:09:53;4.10;99.90
16485;DHT22;8353;47.856;12.344;2022-12-20T08:12:24;4.10;99.90
16485;DHT22;8353;47.856;12.344;2022-12-20T08:14:56;4.00;99.90
16485;DHT22;8353;47.856;12.344;2022-12-20T08:17:27;4.10;99.90
16485;DHT22;8353;47.856;12.344;2022-12-20T08:19:59;4.20;99.90
16485;DHT22;8353;47.856;12.344;2022-12-20T08:22:29;4.20;99.90
16485;DHT22;8353;47.856;12.344;2022-12-20T08:25:00;4.30;99.90
16485;DHT22;8353;47.856;12.344;2022-12-20T08:27:31;4.40;99.90
16485;DHT22;8353;47.856;12.344;2022-12-20T08:30:01;4.50;99.90
16485;DHT22;8353;47.856;12.344;2022-12-20T08:32:32;4.50;99.90
16485;DHT22;8353;47.856;12.344;2022-12-20T08:35:05;4.60;99.90
16485;DHT22;8353;47.856;12.344;2022-12-20T08:37:36;4.70;99.90
16485;DHT22;8353;47.856;12.344;2022-12-20T08:40:08;4.70;99.90
16485;DHT22;8353;47.856;12.344;2022-12-20T08:42:38;4.80;99.90
16485;DHT22;8353;47.856;12.344;2022-12-20T08:45:09;4.80;99.90
16485;DHT22;8353;47.856;12.344;2022-12-20T08:47:40;4.80;99.90
16485;DHT22;8353;47.856;12.344;2022-12-20T08:50:12;4.80;99.90
16485;DHT22;8353;47.856;12.344;2022-12-20T08:52:43;4.90;99.90
16485;DHT22;8353;47.856;12.344;2022-12-20T08:55:13;4.90;99.90
16485;DHT22;8353;47.856;12.344;2022-12-20T08:57:44;5.00;99.90
16485;DHT22;8353;47.856;12.344;2022-12-20T09:00:14;5.00;99.90
16485;DHT22;8353;47.856;12.344;2022-12-20T09:02:45;5.10;99.90
16485;DHT22;8353;47.856;12.344;2022-12-20T09:05:18;5.10;99.90
16485;DHT22;8353;47.856;12.344;2022-12-20T09:07:48;5.20;99.90
16485;DHT22;8353;47.856;12.344;2022-12-20T09:10:19;5.20;99.90
16485;DHT22;8353;47.856;12.344;2022-12-20T09:12:50;5.20;99.90
16485;DHT22;8353;47.856;12.344;2022-12-20T09:15:20;5.30;99.90
16485;DHT22;8353;47.856;12.344;2022-12-20T09:17:51;5.40;99.90
16485;DHT22;8353;47.856;12.344;2022-12-20T09:20:22;5.40;99.90
16485;DHT22;8353;47.856;12.344;2022-12-20T09:22:53;5.50;99.90
16485;DHT22;8353;47.856;12.344;2022-12-20T09:25:24;5.50;99.90
16485;DHT22;8353;47.856;12.344;2022-12-20T09:27:55;5.50;99.90
16485;DHT22;8353;47.856;12.344;2022-12-20T09:30:25;5.60;99.90
16485;DHT22;8353;47.856;12.344;2022-12-20T09:32:56;5.60;99.90
16485;DHT22;8353;47.856;12.344;2022-12-20T09:35:27;5.60;99.90
16485;DHT22;8353;47.856;12.344;2022-12-20T09:37:58;5.60;99.90
16485;DHT22;8353;47.856;12.344;2022-12-20T09:40:30;5.70;99.90
16485;DHT22;8353;47.856;12.344;2022-12-20T09:43:04;5.60;99.90
16485;DHT22;8353;47.856;12.344;2022-12-20T09:45:38;5.70;99.90
16485;DHT22;8353;47.856;12.344;2022-12-20T09:48:13;5.70;99.90
16485;DHT22;8353;47.856;12.344;2022-12-20T09:50:55;5.70;99.90
16485;DHT22;8353;47.856;12.344;2022-12-20T09:53:36;5.70;99.90
16485;DHT22;8353;47.856;12.344;2022-12-20T09:56:14;5.70;99.90
16485;DHT22;8353;47.856;12.344;2022-12-20T09:58:57;5.70;99.90
16485;DHT22;8353;47.856;12.344;2022-12-20T10:01:29;5.70;99.90
16485;DHT22;8353;47.856;12.344;2022-12-20T10:04:05;5.80;99.90
16485;DHT22;8353;47.856;12.344;2022-12-20T10:06:44;5.80;99.90
16485;DHT22;8353;47.856;12.344;2022-12-20T10:09:30;5.70;99.90
16485;DHT22;8353;47.856;12.344;2022-12-20T10:12:13;5.80;99.90
16485;DHT22;8353;47.856;12.344;2022-12-20T10:15:03;5.80;99.90
16485;DHT22;8353;47.856;12.344;2022-12-20T10:17:49;5.80;99.90
16485;DHT22;8353;47.856;12.344;2022-12-20T10:20:38;5.80;99.90
16485;DHT22;8353;47.856;12.344;2022-12-20T10:23:20;5.90;99.90
16485;DHT22;8353;47.856;12.344;2022-12-20T10:25:56;5.90;99.90
16485;DHT22;8353;47.856;12.344;2022-12-20T10:28:28;6.00;99.90
16485;DHT22;8353;47.856;12.344;2022-12-20T10:31:01;6.10;99.90
16485;DHT22;8353;47.856;12.344;2022-12-20T10:33:33;6.10;99.90
16485;DHT22;8353;47.856;12.344;2022-12-20T10:36:21;6.10;99.90
16485;DHT22;8353;47.856;12.344;2022-12-20T10:38:55;6.10;99.90
16485;DHT22;8353;47.856;12.344;2022-12-20T10:41:28;6.20;99.90
16485;DHT22;8353;47.856;12.344;2022-12-20T10:44:01;6.20;99.90
16485;DHT22;8353;47.856;12.344;2022-12-20T10:46:37;6.20;99.90
16485;DHT22;8353;47.856;12.344;2022-12-20T10:49:23;6.20;99.90
16485;DHT22;8353;47.856;12.344;2022-12-20T10:51:57;6.30;99.90
16485;DHT22;8353;47.856;12.344;2022-12-20T10:54:32;6.30;99.90
16485;DHT22;8353;47.856;12.344;2022-12-20T10:57:15;6.30;99.90
16485;DHT22;8353;47.856;12.344;2022-12-20T10:59:50;6.30;99.90
16485;DHT22;8353;47.856;12.344;2022-12-20T11:02:26;6.40;99.90
16485;DHT22;8353;47.856;12.344;2022-12-20T11:05:20;6.40;99.90
16485;DHT22;8353;47.856;12.344;2022-12-20T11:07:52;6.40;99.90
16485;DHT22;8353;47.856;12.344;2022-12-20T11:10:26;6.40;99.90
16485;DHT22;8353;47.856;12.344;2022-12-20T11:12:58;6.60;99.90
16485;DHT22;8353;47.856;12.344;2022-12-20T11:15:31;6.50;99.90
16485;DHT22;8353;47.856;12.344;2022-12-20T11:18:05;6.50;99.90
16485;DHT22;8353;47.856;12.344;2022-12-20T11:20:42;6.60;99.90
16485;DHT22;8353;47.856;12.344;2022-12-20T11:23:21;6.60;99.90
16485;DHT22;8353;47.856;12.344;2022-12-20T11:26:07;6.60;99.90
16485;DHT22;8353;47.856;12.344;2022-12-20T11:28:53;6.60;99.90
16485;DHT22;8353;47.856;12.344;2022-12-20T11:31:27;6.60;99.90
16485;DHT22;8353;47.856;12.344;2022-12-20T11:34:14;6.70;99.90
16485;DHT22;8353;47.856;12.344;2022-12-20T11:37:00;6.60;99.90
16485;DHT22;8353;47.856;12.344;2022-12-20T11:39:38;6.60;99.90
16485;DHT22;8353;47.856;12.344;2022-12-20T11:42:16;6.60;99.90
16485;DHT22;8353;47.856;12.344;2022-12-20T11:44:52;6.60;99.90
16485;DHT22;8353;47.856;12.344;2022-12-20T11:47:46;6.50;99.90
16485;DHT22;8353;47.856;12.344;2022-12-20T11:50:38;6.60;99.90
16485;DHT22;8353;47.856;12.344;2022-12-20T11:53:15;6.60;99.90
16485;DHT22;8353;47.856;12.344;2022-12-20T11:55:53;6.60;99.90
16485;DHT22;8353;47.856;12.344;2022-12-20T11:58:29;6.70;99.90
16485;DHT22;8353;47.856;12.344;2022-12-20T12:01:05;6.70;99.90
16485;DHT22;8353;47.856;12.344;2022-12-20T12:03:39;6.70;99.90
16485;DHT22;8353;47.856;12.344;2022-12-20T12:06:16;6.80;99.90
16485;DHT22;8353;47.856;12.344;2022-12-20T12:08:51;6.90;99.90
16485;DHT22;8353;47.856;12.344;2022-12-20T12:11:24;6.90;99.90
16485;DHT22;8353;47.856;12.344;2022-12-20T12:13:59;7.00;99.90
16485;DHT22;8353;47.856;12.344;2022-12-20T12:16:33;6.90;99.90
16485;DHT22;8353;47.856;12.344;2022-12-20T12:19:08;6.90;99.90
16485;DHT22;8353;47.856;12.344;2022-12-20T12:21:44;6.90;99.90
16485;DHT22;8353;47.856;12.344;2022-12-20T12:24:22;6.80;99.90
16485;DHT22;8353;47.856;12.344;2022-12-20T12:26:53;6.80;99.90
16485;DHT22;8353;47.856;12.344;2022-12-20T12:29:28;6.80;99.90
16485;DHT22;8353;47.856;12.344;2022-12-20T12:32:01;6.80;99.90
16485;DHT22;8353;47.856;12.344;2022-12-20T12:34:47;6.70;99.90
16485;DHT22;8353;47.856;12.344;2022-12-20T12:37:48;6.70;99.90
16485;DHT22;8353;47.856;12.344;2022-12-20T12:40:49;6.80;99.90
16485;DHT22;8353;47.856;12.344;2022-12-20T12:43:44;6.70;99.90
16485;DHT22;8353;47.856;12.344;2022-12-20T12:46:21;6.80;99.90
16485;DHT22;8353;47.856;12.344;2022-12-20T12:48:57;6.80;99.90
16485;DHT22;8353;47.856;12.344;2022-12-20T12:51:31;6.80;99.90
16485;DHT22;8353;47.856;12.344;2022-12-20T12:54:15;7.00;99.90
16485;DHT22;8353;47.856;12.344;2022-12-20T12:56:47;7.00;99.90
16485;DHT22;8353;47.856;12.344;2022-12-20T13:02:35;7.00;99.90
16485;DHT22;8353;47.856;12.344;2022-12-20T13:05:35;6.90;99.90
16485;DHT22;8353;47.856;12.344;2022-12-20T13:08:14;6.80;99.90
16485;DHT22;8353;47.856;12.344;2022-12-20T13:11:00;6.70;99.90
16485;DHT22;8353;47.856;12.344;2022-12-20T13:13:30;6.70;99.90
16485;DHT22;8353;47.856;12.344;2022-12-20T13:16:12;6.60;99.90
16485;DHT22;8353;47.856;12.344;2022-12-20T13:19:13;6.70;99.90
16485;DHT22;8353;47.856;12.344;2022-12-20T13:21:44;6.70;99.90
16485;DHT22;8353;47.856;12.344;2022-12-20T13:24:38;6.70;99.90
16485;DHT22;8353;47.856;12.344;2022-12-20T13:27:25;6.70;99.90
16485;DHT22;8353;47.856;12.344;2022-12-20T13:33:19;6.70;99.90
16485;DHT22;8353;47.856;12.344;2022-12-20T13:36:28;6.60;99.90
16485;DHT22;8353;47.856;12.344;2022-12-20T13:39:02;6.60;99.90
16485;DHT22;8353;47.856;12.344;2022-12-20T13:41:43;6.50;99.90
16485;DHT22;8353;47.856;12.344;2022-12-20T13:44:38;6.50;99.90
16485;DHT22;8353;47.856;12.344;2022-12-20T13:47:27;6.50;99.90
16485;DHT22;8353;47.856;12.344;2022-12-20T13:50:00;6.60;99.90
16485;DHT22;8353;47.856;12.344;2022-12-20T13:52:33;6.70;99.90
16485;DHT22;8353;47.856;12.344;2022-12-20T13:55:16;6.80;99.90
16485;DHT22;8353;47.856;12.344;2022-12-20T13:57:52;6.90;99.90
16485;DHT22;8353;47.856;12.344;2022-12-20T14:00:24;6.90;99.90
16485;DHT22;8353;47.856;12.344;2022-12-20T14:02:56;6.90;99.90
16485;DHT22;8353;47.856;12.344;2022-12-20T14:05:31;6.90;99.90
16485;DHT22;8353;47.856;12.344;2022-12-20T14:08:05;6.90;99.90
16485;DHT22;8353;47.856;12.344;2022-12-20T14:10:36;6.80;99.90
16485;DHT22;8353;47.856;12.344;2022-12-20T14:13:18;6.80;99.90
16485;DHT22;8353;47.856;12.344;2022-12-20T14:15:49;6.80;99.90
16485;DHT22;8353;47.856;12.344;2022-12-20T14:18:21;6.90;99.90
16485;DHT22;8353;47.856;12.344;2022-12-20T14:20:54;6.90;99.90
16485;DHT22;8353;47.856;12.344;2022-12-20T14:23:34;7.00;99.90
16485;DHT22;8353;47.856;12.344;2022-12-20T14:26:09;7.20;99.90
16485;DHT22;8353;47.856;12.344;2022-12-20T14:28:43;7.30;99.90
16485;DHT22;8353;47.856;12.344;2022-12-20T14:31:23;7.40;99.90
16485;DHT22;8353;47.856;12.344;2022-12-20T14:34:03;7.30;99.90
16485;DHT22;8353;47.856;12.344;2022-12-20T14:36:34;7.20;99.90
16485;DHT22;8353;47.856;12.344;2022-12-20T14:39:22;7.30;99.90
16485;DHT22;8353;47.856;12.344;2022-12-20T14:41:55;7.30;99.90
16485;DHT22;8353;47.856;12.344;2022-12-20T14:44:27;7.10;99.90
16485;DHT22;8353;47.856;12.344;2022-12-20T14:46:59;7.00;99.90
16485;DHT22;8353;47.856;12.344;2022-12-20T14:49:30;6.80;99.90
16485;DHT22;8353;47.856;12.344;2022-12-20T14:52:11;6.70;99.90
16485;DHT22;8353;47.856;12.344;2022-12-20T14:54:46;6.70;99.90
16485;DHT22;8353;47.856;12.344;2022-12-20T14:57:22;6.70;99.90
16485;DHT22;8353;47.856;12.344;2022-12-20T15:00:04;6.70;99.90
16485;DHT22;8353;47.856;12.344;2022-12-20T15:02:41;6.70;99.90
16485;DHT22;8353;47.856;12.344;2022-12-20T15:05:49;6.70;99.90
16485;DHT22;8353;47.856;12.344;2022-12-20T15:08:23;6.60;99.90
16485;DHT22;8353;47.856;12.344;2022-12-20T15:10:58;6.60;99.90
16485;DHT22;8353;47.856;12.344;2022-12-20T15:13:33;6.50;99.90
16485;DHT22;8353;47.856;12.344;2022-12-20T15:16:11;6.60;99.90
16485;DHT22;8353;47.856;12.344;2022-12-20T15:18:42;6.60;99.90
16485;DHT22;8353;47.856;12.344;2022-12-20T15:21:15;6.50;99.90
16485;DHT22;8353;47.856;12.344;2022-12-20T15:23:50;6.50;99.90
16485;DHT22;8353;47.856;12.344;2022-12-20T15:26:24;6.50;99.90
16485;DHT22;8353;47.856;12.344;2022-12-20T15:28:55;6.50;99.90
16485;DHT22;8353;47.856;12.344;2022-12-20T15:31:27;6.50;99.90
16485;DHT22;8353;47.856;12.344;2022-12-20T15:33:58;6.50;99.90
16485;DHT22;8353;47.856;12.344;2022-12-20T15:36:30;6.50;99.90
16485;DHT22;8353;47.856;12.344;2022-12-20T15:39:02;6.50;99.90
16485;DHT22;8353;47.856;12.344;2022-12-20T15:41:34;6.40;99.90
16485;DHT22;8353;47.856;12.344;2022-12-20T15:44:06;6.40;99.90
16485;DHT22;8353;47.856;12.344;2022-12-20T15:46:37;6.40;99.90
16485;DHT22;8353;47.856;12.344;2022-12-20T15:49:11;6.40;99.90
16485;DHT22;8353;47.856;12.344;2022-12-20T15:51:44;6.40;99.90
16485;DHT22;8353;47.856;12.344;2022-12-20T15:54:21;6.30;99.90
16485;DHT22;8353;47.856;12.344;2022-12-20T15:56:54;6.30;99.90
16485;DHT22;8353;47.856;12.344;2022-12-20T15:59:25;6.30;99.90
16485;DHT22;8353;47.856;12.344;2022-12-20T16:01:55;6.30;99.90
16485;DHT22;8353;47.856;12.344;2022-12-20T16:04:26;6.30;99.90
16485;DHT22;8353;47.856;12.344;2022-12-20T16:06:57;6.30;99.90
16485;DHT22;8353;47.856;12.344;2022-12-20T16:09:28;6.20;99.90
16485;DHT22;8353;47.856;12.344;2022-12-20T16:12:00;6.10;99.90
16485;DHT22;8353;47.856;12.344;2022-12-20T16:14:31;6.10;99.90
16485;DHT22;8353;47.856;12.344;2022-12-20T16:17:02;6.10;99.90
16485;DHT22;8353;47.856;12.344;2022-12-20T16:19:33;6.20;99.90
16485;DHT22;8353;47.856;12.344;2022-12-20T16:22:03;6.20;99.90
16485;DHT22;8353;47.856;12.344;2022-12-20T16:24:34;6.20;99.90
16485;DHT22;8353;47.856;12.344;2022-12-20T16:27:06;6.10;99.90
16485;DHT22;8353;47.856;12.344;2022-12-20T16:29:36;6.20;99.90
16485;DHT22;8353;47.856;12.344;2022-12-20T16:32:12;6.10;99.90
16485;DHT22;8353;47.856;12.344;2022-12-20T16:34:44;6.20;99.90
16485;DHT22;8353;47.856;12.344;2022-12-20T16:37:14;6.20;99.90